Etusivu
METAR-TAF:

METAR-TAF

Lentoasemat :

Nižni Novgorodin lentoasema

Nižni Novgorod, Venäjä

Leveyspiiri: 56-19-48N, Pituuspiiri: 044-00E, korkeus merenpinnasta: 78 m

Tämänhetkinen sää

Tämä raportti tehtiin 27 minuuttia sitten, kello 02.00 UTC
tyyntä
Lämpötila 5°C
Kosteus 81%
Ilmanpaine 1021 hPa
Näkyvyys 10 km tai enemmän
Matala sumu

METAR: UWGG 210200Z 00000MPS 9999 MIFG NSC 05/02 Q1021 R18L/090070 NOSIG

Aika: 05:27 (02:27 UTC)

Sääennuste

Tämä raportti tehtiin 3 tuntia ja 35 minuuttia sitten, kello 22.52 UTC
Ennuste voimassa 21. päivästä klo 00 UTC - 21. päivään klo 24 UTC
Tuuli 6 kn pohjoisen/luoteesta
Näkyvyys 10 km tai enemmän
Hajanaisia pilviä 2000 ft:n korkeudessa

TAF: UWGG 202252Z 2100/2124 33003MPS 9999 SCT020 TX18/2112Z TN03/2102Z

Säähavainnot ja -ennusteet yli 4000 lentoasemalta (METAR- ja TAF-raportit).

Käytössä olevat sääasemat on merkitty karttaan keltaisilla ja punaisilla pisteillä.

Aseta hiiri pisteen päälle nähdäksesi sääaseman nimen.

Klikkaa sitten nähdäksesi säähavainnot ja -ennusteet.

Kartan vaihtaminen: klikkaa mustalla rastilla varustettuja vihreitä pisteitä, niin voit zoomata sisään; viivalla varustettua vihreää pistettä, niin voit zoomata ulos tai vihreitä nuolia, niin pääset viereisille kartoille.


METAR-TAF: